createdAt,value
2019-01-05T00:02:20.737Z,5.75
2019-01-05T00:04:57.761Z,5.83
2019-01-05T00:07:29.085Z,5.74
2019-01-05T00:10:18.644Z,5.81
2019-01-05T00:12:58.475Z,5.81
2019-01-05T00:15:52.872Z,5.80
2019-01-05T00:18:28.939Z,5.78
2019-01-05T00:21:19.666Z,5.80
2019-01-05T00:23:49.957Z,5.82
2019-01-05T00:26:38.000Z,5.87
2019-01-05T00:29:19.259Z,5.86
2019-01-05T00:32:42.643Z,5.86
2019-01-05T00:35:34.551Z,5.88
2019-01-05T00:38:11.958Z,5.91
2019-01-05T00:40:53.786Z,5.91
2019-01-05T00:43:25.705Z,5.99
2019-01-05T00:46:04.258Z,5.93
2019-01-05T00:49:12.656Z,5.90
2019-01-05T00:51:56.964Z,5.89
2019-01-05T00:54:30.216Z,5.94
2019-01-05T00:57:16.737Z,5.88
2019-01-05T01:00:03.246Z,5.89
2019-01-05T01:02:33.204Z,5.92
2019-01-05T01:05:10.795Z,5.89
2019-01-05T01:07:45.253Z,5.90
2019-01-05T01:10:19.676Z,5.93
2019-01-05T01:12:55.443Z,5.90
2019-01-05T01:15:43.246Z,5.91
2019-01-05T01:18:17.376Z,6.00
2019-01-05T01:20:57.909Z,6.06
2019-01-05T01:23:35.491Z,6.03
2019-01-05T01:26:23.537Z,5.97
2019-01-05T01:29:11.852Z,5.96
2019-01-05T01:31:43.456Z,5.96
2019-01-05T01:34:28.699Z,6.04
2019-01-05T01:37:01.320Z,6.05
2019-01-05T01:39:34.611Z,6.05
2019-01-05T01:42:09.366Z,6.03
2019-01-05T01:44:41.201Z,6.04
2019-01-05T01:47:27.369Z,6.04
2019-01-05T01:50:09.884Z,6.01
2019-01-05T01:52:48.657Z,6.00
2019-01-05T01:55:35.208Z,6.02
2019-01-05T01:58:24.093Z,6.07
2019-01-05T02:01:12.463Z,6.10
2019-01-05T02:03:48.095Z,6.13
2019-01-05T02:06:23.777Z,6.13
2019-01-05T02:09:04.387Z,6.09
2019-01-05T02:11:45.486Z,6.11
2019-01-05T02:14:27.308Z,6.03
2019-01-05T02:17:11.612Z,6.03
2019-01-05T02:19:50.026Z,5.99
2019-01-05T02:22:43.336Z,6.02
2019-01-05T02:25:45.867Z,6.05
2019-01-05T02:28:57.894Z,6.06
2019-01-05T02:32:09.785Z,6.12
2019-01-05T02:35:02.393Z,6.07
2019-01-05T02:38:29.813Z,6.10
2019-01-05T02:41:32.741Z,6.09
2019-01-05T02:44:41.960Z,6.14
2019-01-05T02:47:55.120Z,6.14
2019-01-05T02:51:04.972Z,6.17
2019-01-05T02:54:16.526Z,6.07
2019-01-05T02:57:25.312Z,6.20
2019-01-05T03:00:46.384Z,6.17
2019-01-05T03:04:15.662Z,6.21
2019-01-05T03:07:44.386Z,6.14
2019-01-05T03:11:07.375Z,6.25
2019-01-05T03:14:36.173Z,6.17
2019-01-05T03:17:36.014Z,6.15
2019-01-05T03:20:31.814Z,6.17
2019-01-05T03:23:53.767Z,6.24
2019-01-05T03:26:36.869Z,6.24
2019-01-05T03:29:49.911Z,6.37
2019-01-05T03:33:04.254Z,6.34
2019-01-05T03:36:05.057Z,6.36
2019-01-05T03:39:23.156Z,6.43
2019-01-05T03:42:42.617Z,6.35
2019-01-05T03:45:58.743Z,6.44
2019-01-05T03:49:33.250Z,6.45
2019-01-05T03:52:30.187Z,6.43
2019-01-05T03:55:36.146Z,6.53
2019-01-05T03:58:20.803Z,6.48
2019-01-05T04:01:34.530Z,6.51
2019-01-05T04:04:35.705Z,6.48
2019-01-05T04:08:02.101Z,6.46
2019-01-05T04:11:27.928Z,6.49
2019-01-05T04:14:26.363Z,6.63
2019-01-05T04:17:17.221Z,6.58
2019-01-05T04:20:11.037Z,6.55
2019-01-05T04:23:45.992Z,6.56
2019-01-05T04:26:52.008Z,6.60
2019-01-05T04:29:51.201Z,6.65
2019-01-05T04:32:48.169Z,6.63
2019-01-05T04:35:52.688Z,6.66
2019-01-05T04:39:25.031Z,6.67
2019-01-05T04:42:33.271Z,6.76
2019-01-05T04:46:10.088Z,6.77
2019-01-05T04:49:26.554Z,6.78
2019-01-05T04:52:47.860Z,6.77
2019-01-05T04:55:49.030Z,6.80
2019-01-05T04:59:10.201Z,6.81
2019-01-05T05:02:26.239Z,6.80
2019-01-05T05:05:44.861Z,6.85
2019-01-05T05:09:17.142Z,6.86
2019-01-05T05:12:01.598Z,6.89
2019-01-05T05:14:48.852Z,6.97
2019-01-05T05:17:48.104Z,6.90
2019-01-05T05:21:28.212Z,6.94
2019-01-05T05:25:08.631Z,6.89
2019-01-05T05:28:09.906Z,6.95
2019-01-05T05:30:54.875Z,7.00
2019-01-05T05:34:24.868Z,7.06
2019-01-05T05:37:41.609Z,7.05
2019-01-05T05:41:10.697Z,6.99
2019-01-05T05:44:36.594Z,7.07
2019-01-05T05:47:47.386Z,7.10
2019-01-05T05:51:00.866Z,7.07
2019-01-05T05:53:56.287Z,7.18
2019-01-05T05:57:16.189Z,7.25
2019-01-05T06:00:35.677Z,7.28
2019-01-05T06:03:38.928Z,7.19
2019-01-05T06:06:36.559Z,7.24
2019-01-05T06:09:47.277Z,7.37
2019-01-05T06:13:01.093Z,7.38
2019-01-05T06:16:13.205Z,7.32
2019-01-05T06:19:34.775Z,7.38
2019-01-05T06:22:28.114Z,7.41
2019-01-05T06:25:32.377Z,7.38
2019-01-05T06:28:36.725Z,7.28
2019-01-05T06:31:30.445Z,7.35
2019-01-05T06:34:33.219Z,7.32
2019-01-05T06:37:30.979Z,7.38
2019-01-05T06:40:38.651Z,7.33
2019-01-05T06:43:43.182Z,7.45
2019-01-05T06:46:36.905Z,7.38
2019-01-05T06:49:56.092Z,7.42
2019-01-05T06:52:52.846Z,7.47
2019-01-05T06:55:55.823Z,7.50
2019-01-05T06:59:24.729Z,7.46
2019-01-05T07:02:48.786Z,7.51
2019-01-05T07:05:47.406Z,7.43
2019-01-05T07:08:48.444Z,7.42
2019-01-05T07:11:58.584Z,7.47
2019-01-05T07:15:35.825Z,7.52
2019-01-05T07:19:01.517Z,7.51
2019-01-05T07:21:49.877Z,7.47
2019-01-05T07:24:40.529Z,7.51
2019-01-05T07:28:22.624Z,7.52
2019-01-05T07:35:43.612Z,7.52
2019-01-05T07:38:56.024Z,7.49
2019-01-05T07:42:10.792Z,7.48
2019-01-05T07:44:54.964Z,7.43
2019-01-05T07:48:14.225Z,7.47
2019-01-05T07:51:38.790Z,7.38
2019-01-05T07:56:29.595Z,7.44
2019-01-05T07:59:54.664Z,7.38
2019-01-05T08:02:54.379Z,7.44
2019-01-05T08:05:54.739Z,7.41
2019-01-05T08:09:05.014Z,7.42
2019-01-05T08:12:11.042Z,7.46
2019-01-05T08:15:24.669Z,7.42
2019-01-05T08:18:59.829Z,7.42
2019-01-05T08:22:07.360Z,7.46
2019-01-05T08:25:22.593Z,7.38
2019-01-05T08:28:24.966Z,7.40
2019-01-05T08:31:05.997Z,7.45
2019-01-05T08:34:36.416Z,7.51
2019-01-05T08:37:53.450Z,7.50
2019-01-05T08:41:15.985Z,7.41
2019-01-05T08:44:26.669Z,7.54
2019-01-05T08:47:26.492Z,7.52
2019-01-05T08:50:46.282Z,7.56
2019-01-05T08:54:07.500Z,7.48
2019-01-05T08:57:23.932Z,7.52
2019-01-05T09:00:23.761Z,7.43
2019-01-05T09:03:26.127Z,7.43
2019-01-05T09:06:27.425Z,7.51
2019-01-05T09:09:48.833Z,7.50
2019-01-05T09:13:17.704Z,7.48
2019-01-05T09:16:21.058Z,7.53
2019-01-05T09:19:34.614Z,7.61
2019-01-05T09:22:56.733Z,7.54
2019-01-05T09:26:11.954Z,7.52
2019-01-05T09:29:03.296Z,7.49
2019-01-05T09:32:39.329Z,7.58
2019-01-05T09:35:46.430Z,7.47
2019-01-05T09:38:52.283Z,7.47
2019-01-05T09:41:37.928Z,7.66
2019-01-05T09:45:01.821Z,7.56
2019-01-05T09:48:27.809Z,7.63
2019-01-05T09:51:56.893Z,7.65
2019-01-05T09:55:02.579Z,7.55
2019-01-05T09:58:38.635Z,7.64
2019-01-05T10:01:53.184Z,7.64
2019-01-05T10:05:13.058Z,7.58
2019-01-05T10:08:42.985Z,7.71
2019-01-05T10:11:33.388Z,7.72
2019-01-05T10:14:46.366Z,7.67
2019-01-05T10:17:42.398Z,7.73
2019-01-05T10:20:37.439Z,7.80
2019-01-05T10:23:28.185Z,7.80
2019-01-05T10:26:34.582Z,7.77
2019-01-05T10:29:46.190Z,7.84
2019-01-05T10:33:06.172Z,7.77
2019-01-05T10:36:13.696Z,7.80
2019-01-05T10:39:16.171Z,7.83
2019-01-05T10:42:38.716Z,7.84
2019-01-05T10:45:32.799Z,7.87
2019-01-05T10:48:34.376Z,7.93
2019-01-05T10:51:16.888Z,8.01
2019-01-05T10:54:30.716Z,7.93
2019-01-05T10:57:51.617Z,7.85
2019-01-05T11:00:55.960Z,7.88
2019-01-05T11:04:09.988Z,7.83
2019-01-05T11:07:11.484Z,7.88
2019-01-05T11:10:38.873Z,7.84
2019-01-05T11:14:10.963Z,7.91
2019-01-05T11:17:18.280Z,7.86
2019-01-05T11:20:35.785Z,7.81
2019-01-05T11:23:42.237Z,7.82
2019-01-05T11:26:33.253Z,7.86
2019-01-05T11:29:30.411Z,7.93
2019-01-05T11:32:27.538Z,7.95
2019-01-05T11:36:03.813Z,8.03
2019-01-05T11:39:12.776Z,8.07
2019-01-05T11:42:11.997Z,8.02
2019-01-05T11:45:20.011Z,8.06
2019-01-05T11:48:15.271Z,8.10
2019-01-05T11:51:14.554Z,8.12
2019-01-05T11:54:16.221Z,8.01
2019-01-05T11:57:43.664Z,7.99
2019-01-05T12:00:38.642Z,8.07
2019-01-05T12:03:39.539Z,8.05
2019-01-05T12:06:35.078Z,8.07
2019-01-05T12:09:29.115Z,8.00
2019-01-05T12:12:22.916Z,7.96
2019-01-05T12:15:52.551Z,7.99
2019-01-05T12:19:20.041Z,8.01
2019-01-05T12:22:55.702Z,8.02
2019-01-05T12:25:46.669Z,7.99
2019-01-05T12:29:15.759Z,7.92
2019-01-05T12:32:12.915Z,8.02
2019-01-05T12:35:38.011Z,7.96
2019-01-05T12:38:20.764Z,7.99
2019-01-05T12:41:26.217Z,7.89
2019-01-05T12:44:45.154Z,7.87
2019-01-05T12:47:58.772Z,7.87
2019-01-05T12:51:29.217Z,7.91
2019-01-05T12:54:19.200Z,7.90
2019-01-05T12:57:35.088Z,7.87
2019-01-05T13:00:44.207Z,7.87
2019-01-05T13:04:00.442Z,7.89
2019-01-05T13:07:08.422Z,7.95
2019-01-05T13:10:27.453Z,7.94
2019-01-05T13:13:30.979Z,8.01
2019-01-05T13:16:54.392Z,7.89
2019-01-05T13:20:36.328Z,7.90
2019-01-05T13:23:42.330Z,7.90
2019-01-05T13:26:47.882Z,7.94
2019-01-05T13:30:04.926Z,7.99
2019-01-05T13:33:33.289Z,7.98
2019-01-05T13:36:33.831Z,7.99
2019-01-05T13:39:36.968Z,7.95
2019-01-05T13:42:56.294Z,7.90
2019-01-05T13:46:11.146Z,7.82
2019-01-05T13:49:24.673Z,7.76
2019-01-05T13:52:36.826Z,7.86
2019-01-05T13:55:21.739Z,7.88
2019-01-05T13:58:05.002Z,7.86
2019-01-05T14:00:39.186Z,7.86
2019-01-05T14:03:19.452Z,7.74
2019-01-05T14:06:02.998Z,7.81
2019-01-05T14:08:37.055Z,7.77
2019-01-05T14:11:26.948Z,7.65
2019-01-05T14:14:14.063Z,7.76
2019-01-05T14:16:51.302Z,7.81
2019-01-05T14:19:22.702Z,7.77
2019-01-05T14:22:05.918Z,7.83
2019-01-05T14:24:53.531Z,7.69
2019-01-05T14:27:31.956Z,7.68
2019-01-05T14:30:04.272Z,7.65
2019-01-05T14:32:33.710Z,7.64
2019-01-05T14:35:06.062Z,7.64
2019-01-05T14:37:43.103Z,7.69
2019-01-05T14:40:15.724Z,7.69
2019-01-05T14:43:02.113Z,7.70
2019-01-05T14:45:42.916Z,7.69
2019-01-05T14:48:32.197Z,7.64
2019-01-05T14:51:03.516Z,7.55
2019-01-05T14:53:44.795Z,7.54
2019-01-05T14:56:32.283Z,7.66
2019-01-05T14:59:01.748Z,7.67
2019-01-05T15:01:49.373Z,7.73
2019-01-05T15:04:33.541Z,7.77
2019-01-05T15:07:17.849Z,7.69
2019-01-05T15:09:57.981Z,7.67
2019-01-05T15:12:44.110Z,7.64
2019-01-05T15:15:31.357Z,7.65
2019-01-05T15:18:19.172Z,7.66
2019-01-05T15:20:53.672Z,7.56
2019-01-05T15:23:25.067Z,7.91
2019-01-05T15:26:08.143Z,7.71
2019-01-05T15:28:55.885Z,7.60
2019-01-05T15:31:43.271Z,7.59
2019-01-05T15:34:31.067Z,7.54
2019-01-05T15:37:17.121Z,7.54
2019-01-05T15:40:03.737Z,7.63
2019-01-05T15:42:43.767Z,7.57
2019-01-05T15:45:24.120Z,7.57
2019-01-05T15:47:55.424Z,7.56
2019-01-05T15:50:35.425Z,7.54
2019-01-05T15:53:21.898Z,7.57
2019-01-05T15:55:53.211Z,7.58
2019-01-05T15:58:40.292Z,7.55
2019-01-05T16:01:28.088Z,7.54
2019-01-05T16:03:59.370Z,7.53
2019-01-05T16:06:37.380Z,7.51
2019-01-05T16:09:26.021Z,7.62
2019-01-05T16:12:13.710Z,7.54
2019-01-05T16:15:00.087Z,7.56
2019-01-05T16:17:31.469Z,7.65
2019-01-05T16:20:19.124Z,7.53
2019-01-05T16:23:08.827Z,7.50
2019-01-05T16:25:43.338Z,7.48
2019-01-05T16:28:30.603Z,7.54
2019-01-05T16:31:19.868Z,7.43
2019-01-05T16:34:10.017Z,7.41
2019-01-05T16:36:57.345Z,7.40
2019-01-05T16:39:28.761Z,7.37
2019-01-05T16:42:00.953Z,7.45
2019-01-05T16:44:48.130Z,7.41
2019-01-05T16:47:17.537Z,7.36
2019-01-05T16:50:05.040Z,7.40
2019-01-05T16:52:48.538Z,7.42
2019-01-05T16:55:32.146Z,7.42
2019-01-05T16:58:03.433Z,7.50
2019-01-05T17:00:37.652Z,7.36
2019-01-05T17:03:08.988Z,7.36
2019-01-05T17:05:43.939Z,7.35
2019-01-05T17:08:33.391Z,7.36
2019-01-05T17:11:10.661Z,7.42
2019-01-05T17:14:00.170Z,7.37
2019-01-05T17:16:29.592Z,7.46
2019-01-05T17:19:00.889Z,7.38
2019-01-05T17:21:48.355Z,7.33
2019-01-05T17:24:22.449Z,7.27
2019-01-05T17:27:02.725Z,7.31
2019-01-05T17:29:36.752Z,7.29
2019-01-05T17:32:16.908Z,7.34
2019-01-05T17:34:48.233Z,7.43
2019-01-05T17:37:22.040Z,7.50
2019-01-05T17:39:59.128Z,7.46
2019-01-05T17:42:30.583Z,7.45
2019-01-05T17:45:01.859Z,7.45
2019-01-05T17:47:49.471Z,7.38
2019-01-05T17:50:20.791Z,7.43
2019-01-05T17:53:08.149Z,7.36
2019-01-05T17:55:52.701Z,7.30
2019-01-05T17:58:30.260Z,7.30
2019-01-05T18:01:01.551Z,7.31
2019-01-05T18:03:51.235Z,7.34
2019-01-05T18:06:22.539Z,7.28
2019-01-05T18:08:52.054Z,7.20
2019-01-05T18:11:26.094Z,7.23
2019-01-05T18:13:57.426Z,7.22
2019-01-05T18:16:31.374Z,7.23
2019-01-05T18:19:08.456Z,7.26
2019-01-05T18:21:55.539Z,7.32
2019-01-05T18:24:43.215Z,7.31
2019-01-05T18:27:14.575Z,7.28
2019-01-05T18:30:01.674Z,7.29
2019-01-05T18:32:35.780Z,7.30
2019-01-05T18:35:10.145Z,7.29
2019-01-05T18:37:42.540Z,7.38
2019-01-05T18:40:20.877Z,7.33
2019-01-05T18:42:55.148Z,7.35
2019-01-05T18:45:24.593Z,7.36
2019-01-05T18:48:11.688Z,7.31
2019-01-05T18:50:46.184Z,7.31
2019-01-05T18:53:33.845Z,7.30
2019-01-05T18:56:10.676Z,7.39
2019-01-05T18:58:42.606Z,7.34
2019-01-05T19:01:18.000Z,7.30
2019-01-05T19:04:05.014Z,7.34
2019-01-05T19:06:39.336Z,7.29
2019-01-05T19:09:13.606Z,7.35
2019-01-05T19:11:47.471Z,7.34
2019-01-05T19:14:35.177Z,7.29
2019-01-05T19:17:09.222Z,7.27
2019-01-05T19:19:55.574Z,7.24
2019-01-05T19:22:35.584Z,7.20
2019-01-05T19:25:16.837Z,7.27
2019-01-05T19:27:53.948Z,7.22
2019-01-05T19:30:41.097Z,7.29
2019-01-05T19:33:16.293Z,7.22
2019-01-05T19:35:48.290Z,7.27
2019-01-05T19:38:19.666Z,7.21
2019-01-05T19:41:06.107Z,7.24
2019-01-05T19:43:47.417Z,7.27
2019-01-05T19:46:34.909Z,7.22
2019-01-05T19:49:12.050Z,7.33
2019-01-05T19:51:43.368Z,7.31
2019-01-05T19:54:20.930Z,7.22
2019-01-05T19:57:07.640Z,7.16
2019-01-05T19:59:44.612Z,7.21
2019-01-05T20:02:28.180Z,7.14
2019-01-05T20:05:00.569Z,7.18
2019-01-05T20:07:40.921Z,7.23
2019-01-05T20:10:15.024Z,7.20
2019-01-05T20:12:47.294Z,7.19
2019-01-05T20:15:27.423Z,7.22
2019-01-05T20:18:14.936Z,7.19
2019-01-05T20:21:04.274Z,7.23
2019-01-05T20:23:44.330Z,7.28
2019-01-05T20:26:21.356Z,7.25
2019-01-05T20:28:52.704Z,7.23
2019-01-05T20:31:26.732Z,7.24
2019-01-05T20:33:58.098Z,7.22
2019-01-05T20:36:38.273Z,7.19
2019-01-05T20:39:10.533Z,7.22
2019-01-05T20:41:47.306Z,7.20
2019-01-05T20:44:21.089Z,7.28
2019-01-05T20:46:58.769Z,7.23
2019-01-05T20:49:48.195Z,7.27
2019-01-05T20:52:35.582Z,7.25
2019-01-05T20:55:14.182Z,7.23
2019-01-05T20:57:58.411Z,7.22
2019-01-05T21:00:45.812Z,7.22
2019-01-05T21:03:32.151Z,7.20
2019-01-05T21:06:18.585Z,7.23
2019-01-05T21:08:49.899Z,7.23
2019-01-05T21:11:36.371Z,7.15
2019-01-05T21:14:23.792Z,7.32
2019-01-05T21:16:59.040Z,7.26
2019-01-05T21:19:39.090Z,7.20
2019-01-05T21:22:26.779Z,7.20
2019-01-05T21:25:14.199Z,7.20
2019-01-05T21:27:48.647Z,7.26
2019-01-05T21:30:19.956Z,7.26
2019-01-05T21:33:07.347Z,7.35
2019-01-05T21:35:44.408Z,7.28
2019-01-05T21:38:24.569Z,7.25
2019-01-05T21:41:11.841Z,7.23
2019-01-05T21:43:43.184Z,7.21
2019-01-05T21:46:24.792Z,7.25
2019-01-05T21:48:56.110Z,7.27
2019-01-05T21:51:43.648Z,7.39
2019-01-05T21:54:23.974Z,7.34
2019-01-05T21:56:59.380Z,7.23
2019-01-05T21:59:36.735Z,7.22
2019-01-05T22:02:11.166Z,7.28
2019-01-05T22:04:58.396Z,7.20
2019-01-05T22:07:29.696Z,7.24
2019-01-05T22:10:07.240Z,7.26
2019-01-05T22:12:44.280Z,7.26
2019-01-05T22:15:15.691Z,7.23
2019-01-05T22:17:50.035Z,7.38
2019-01-05T22:20:24.567Z,7.31
2019-01-05T22:23:10.662Z,7.18
2019-01-05T22:25:50.967Z,7.16
2019-01-05T22:28:32.428Z,7.17
2019-01-05T22:31:12.381Z,7.18
2019-01-05T22:33:43.686Z,7.17
2019-01-05T22:36:23.987Z,7.18
2019-01-05T22:39:07.213Z,7.14
2019-01-05T22:41:54.895Z,7.18
2019-01-05T22:44:28.796Z,7.11
2019-01-05T22:47:13.205Z,7.16
2019-01-05T22:49:50.586Z,7.18
2019-01-05T22:52:20.033Z,7.14
2019-01-05T22:54:58.311Z,7.15
2019-01-05T22:57:45.416Z,7.25
2019-01-05T23:00:32.759Z,7.21
2019-01-05T23:03:04.082Z,7.18
2019-01-05T23:05:38.269Z,7.17
2019-01-05T23:08:15.578Z,7.13
2019-01-05T23:11:04.304Z,7.14
2019-01-05T23:13:38.049Z,7.18
2019-01-05T23:16:09.389Z,7.24
2019-01-05T23:18:50.091Z,7.11
2019-01-05T23:21:37.784Z,7.08
2019-01-05T23:24:09.073Z,7.16
2019-01-05T23:26:46.111Z,7.12
2019-01-05T23:29:20.436Z,7.15
2019-01-05T23:32:04.110Z,7.21
2019-01-05T23:34:35.385Z,7.10
2019-01-05T23:37:22.755Z,7.15
2019-01-05T23:40:09.464Z,7.08
2019-01-05T23:42:39.058Z,7.11
2019-01-05T23:45:16.122Z,7.04
2019-01-05T23:48:05.713Z,7.11
2019-01-05T23:50:35.138Z,7.12
2019-01-05T23:53:21.911Z,7.09
2019-01-05T23:55:57.273Z,7.18
2019-01-05T23:58:35.448Z,7.17
